Weather observations for the past three days for
Manitowoc, Manitowoc County Airport
Metric (Imperial)
Date Time (cdt) Wind (kph) Vis. (km) Weather Sky Cond. Temperature (ºC) Relative Humidity Wind Chill (°C) Heat Index (°C) Pressure Precipitation (cm)
Air Dwpt 6 hour altimeter (cm) sea level (mb) 1 hr 3 hr 6 hr
Max. Min.
06 03:56 N 7 16.09 Fair CLR 0 0 100% -2 75.9 1012.3
06 02:56 Calm 16.09 Fair CLR 0.6 0.6 100% 75.87 1011.8
06 01:56 Calm 16.09 Fair CLR 2.8 0.6 86% 75.87 1011.8
06 00:56 NE 6 16.09 Fair CLR 3.3 0 10 3.3 79% 75.87 1011.9
05 23:56 NW 7 16.09 Fair CLR 3.9 -3.3 60% 2 75.82 1011.4
05 22:56 W 7 16.09 Fair CLR 5.6 -3.9 51% 4 75.82 1011.2
05 21:56 NW 9 16.09 Fair CLR 6.7 -4.4 45% 5 75.82 1010.9
05 20:56 NW 13 16.09 Fair CLR 7.2 -4.4 44% 5 75.77 1010.5
05 19:56 NW 20 16.09 Fair CLR 8.3 -5 39% 5 75.69 1009.4
05 18:56 NW 31 G 41 16.09 Fair CLR 10 -5 12.8 10 35% 7 75.67 1009.1
05 17:56 NW 28 G 37 16.09 Fair CLR 11.1 -4.4 34% 75.62 1008.5
05 16:56 NW 33 G 41 16.09 Partly Cloudy and Breezy SCT070 12.2 -5 30% 75.59 1008.1
05 15:56 W 33 G 48 16.09 Fair and Breezy CLR 12.2 -4.4 31% 75.59 1007.9
05 14:56 W 24 G 46 16.09 Fair CLR 12.2 -4.4 31% 75.57 1007.7
05 13:56 W 31 G 44 16.09 Fair CLR 12.2 -4.4 31% 75.54 1007.5
05 12:56 W 30 G 43 16.09 A Few Clouds FEW060 11.7 -3.3 12.2 6.7 35% 75.54 1007.5
05 11:56 W 30 G 41 16.09 Partly Cloudy SCT060 10.6 -3.3 38% 75.54 1007.2
05 10:56 W 17 16.09 Partly Cloudy SCT060 10.6 -2.8 39% 75.54 1007.2
05 09:56 W 19 G 31 16.09 Mostly Cloudy BKN055 10.6 -2.8 39% 75.54 1007.1
05 08:56 W 19 16.09 Partly Cloudy SCT049 9.4 -2.2 44% 7 75.54 1007.1
05 07:56 W 19 G 33 16.09 Fair CLR 8.3 -3.3 44% 6 75.54 1007.2
05 06:56 W 9 16.09 Fair CLR 6.7 -3.3 9.4 5 49% 5 75.49 1006.3
05 05:56 W 9 16.09 Fair CLR 5 -4.4 51% 3 75.44 1005.7
05 04:56 W 9 16.09 Fair CLR 6.1 -5 45% 4 75.41 1005.4
05 03:56 NW 17 16.09 Fair CLR 6.7 -5 43% 4 75.34 1004.3
05 02:56 NW 24 G 33 16.09 Fair CLR 7.8 -3.3 46% 5 75.26 1003.3
05 01:56 NW 20 16.09 Fair CLR 9.4 -0.6 50% 7 75.23 1002.9
05 00:56 N 7 16.09 A Few Clouds FEW070 8.9 2.8 20 8.9 66% 8 75.21 1002.7
04 23:56 NE 13 G 30 16.09 Fair CLR 12.2 0 43% 75.11 1001.1
04 22:56 NW 20 16.09 Fair CLR 13.3 0 40% 75.01 999.8
04 21:56 NW 26 16.09 Fair CLR 15 -0.6 35% 74.9 998.5
04 20:56 NW 24 G 33 16.09 Fair CLR 16.7 0.6 34% 74.78 996.9
04 19:56 NW 20 G 35 16.09 Fair CLR 18.3 1.1 32% 74.7 995.8
04 18:56 NW 17 16.09 Fair CLR 20 3.9 25.6 20 35% 74.63 994.9
04 17:56 W 41 G 56 16.09 Fair and Breezy CLR 22.2 3.3 29% 74.6 994.5
04 16:56 W 24 G 35 16.09 A Few Clouds FEW055 24.4 6.1 31% 25 74.55 993.6
04 15:56 SW 31 G 67 16.09 Light Rain FEW085 22.8 6.7 35% 74.57 994.0
04 14:56 W 33 G 46 16.09 Fair and Breezy CLR 24.4 5 29% 25 74.57 993.9
04 13:56 W 35 G 50 16.09 Fair and Breezy CLR 25.6 5 27% 26 74.57 994.1
04 12:56 SW 44 G 57 16.09 Fair and Windy CLR 24.4 4.4 24.4 12.8 27% 25 74.6 994.2
04 11:56 SW 41 G 54 16.09 Fair and Breezy CLR 23.3 3.9 28% 74.63 994.8
04 10:56 SW 43 G 61 16.09 Fair and Windy CLR 22.2 2.8 28% 74.7 995.8
04 09:56 SW 35 G 44 16.09 Fair and Breezy CLR 20.6 2.8 31% 74.78 996.7
04 08:56 SW 31 G 37 16.09 Fair CLR 19.4 2.2 32% 74.85 998.0
04 07:56 SW 24 16.09 Fair CLR 17.2 2.2 37% 74.9 998.7
04 06:56 SW 13 16.09 Fair CLR 12.8 2.2 13.3 9.4 49% 74.96 999.3
04 05:56 SW 9 16.09 Fair CLR 10 0.6 52% 9 74.98 999.6
04 04:56 W 9 16.09 Fair CLR 10.6 1.7 54% 75.03 1000.2
04 03:56 SW 9 16.09 Fair CLR 10.6 3.3 61% 75.08 1000.9
04 02:56 SW 9 16.09 Fair CLR 10.6 3.9 64% 75.11 1001.3
04 01:56 W 7 16.09 Fair CLR 11.7 4.4 61% 75.16 1001.8
04 00:56 W 11 16.09 Fair CLR 13.3 5 15.6 9.4 57% 75.21 1002.5
03 23:56 W 13 16.09 Fair CLR 13.3 5 57% 75.21 1002.4
03 22:56 SW 11 16.09 Fair CLR 13.9 5.6 58% 75.21 1002.6
03 21:56 SW 9 16.09 Fair CLR 14.4 6.1 58% 75.23 1002.9
03 20:56 S 9 16.09 Fair CLR 11.7 6.1 69% 75.21 1002.8
03 19:56 E 9 16.09 Fair CLR 10.6 6.1 74% 75.18 1002.5
03 18:56 S 9 G 31 16.09 Fair CLR 15.6 6.1 19.4 15.6 53% 75.16 1002.2
03 17:56 W 22 G 41 16.09 Fair CLR 19.4 4.4 37% 75.18 1002.1
03 16:56 SW 30 G 37 16.09 Fair CLR 19.4 5 39% 75.21 1002.4
03 15:56 SW 30 G 48 16.09 Fair CLR 18.9 4.4 39% 75.23 1003.1
03 14:56 SW 35 G 46 16.09 Fair and Breezy CLR 18.9 4.4 39% 75.31 1004.0
03 13:56 SW 35 G 48 16.09 Fair and Breezy CLR 17.8 5 43% 75.36 1005.1
03 12:56 SW 44 G 50 16.09 Fair and Windy CLR 16.7 5.6 16.7 10 48% 75.44 1005.9
03 11:56 W 37 G 57 16.09 Fair and Breezy CLR 16.1 4.4 46% 75.49 1006.7
03 10:56 SW 28 G 46 16.09 A Few Clouds FEW110 16.1 5 48% 75.54 1007.2
03 09:56 SW 30 G 43 16.09 Partly Cloudy SCT080 13.9 3.3 49% 75.57 1007.7
03 08:56 SW 26 G 31 16.09 A Few Clouds FEW075 12.2 1.7 49% 75.62 1008.2
03 07:56 SW 15 16.09 A Few Clouds FEW080 10.6 1.1 52% 75.64 1008.6
03 06:56 SW 15 16.09 Fair CLR 10 0.6 11.1 2.8 52% 8 75.67 1008.9
03 05:56 W 17 16.09 Light Rain FEW060 BKN080 10.6 0.6 50% 75.72 1009.5
03 04:56 W 20 16.09 Mostly Cloudy SCT070 BKN090 BKN110 10.6 -0.6 46% 75.69 1009.3
Date Time (cdt) Wind (kph) Vis. (km) Weather Sky Cond. Air Dwpt Max. Min. Relative Humidity Wind Chill (°C) Heat Index (°C) altimeter (cm) sea level (mb) 1 hr 3 hr 6 hr
6 hour
Temperature (ºC) Pressure Precipitation (cm)